Sea Isle City, New Jersey
Current Conditions -  °F | °C
As of 11:35 AM on Thursday 23 Oct 2014 (Local Time) from KWWD Reporting Station
Overcast Overcast  
Wind Chill: 54°   Ceiling: 1300
Heat Index: 54°   Visibility: 10mi
Dew Point: 45°   Wind: 13mph
Humidity: 72%   Direction: 300°WNW
Pressure: 29.78"   Gusts: 23mph
Location:  39.15°N, 74.69°W
Report Text: KWWD 231535Z AUTO 30011G20KT 10SM BKN013 OVC020 12/07 A2978 RMK AO1
Loading
Personal Weather Stations






























Interactive Weather Map New forecast layout! Learn more

10-Day Weather Forecast

Advertisements
Track Severe Weather on mobile